PWSweather.com
Personal Weather Stations
Station Observations
IMAZOWIE6
WarszawaPL

WarszawaPL

Lat: 52.27957, Lon: 21.05489

Elevation: 100

Station Type: WS1080

http://stacjapogody.waw.pl/

High Low Average
Temperature 25.7°F-3.5°C 21.9°F-5.6°C 23.4°F-4.8°C
Dew Point -170.2°F-112.3°C -170.6°F-112.6°C -170.5°F-112.5°C
Winds 2.0 mph 3.2 kmh Calm Calm Calm NCalm N
Wind Gusts 7.4 mph11.9 kmh 0.6 mph1.0 kmh 3.0 mph4.8 kmh
Humidity - - -
Pressure 30.23 in1023.7 mb 30.12 in1020.0 mb -
Precipitation 0.00 in0.0 mm - -
Hour Temp Dew Point Humidity Winds Wind Gusts Pressure Precip Precip Rate Daily Precip Total
12:05 AM 25.7°F-3.5°C -170.2°F-112.3°C - 0.6 mph N1.0 kmh N 3.4 mph5.5 kmh 30.23 in1023.7 mb 0.00 in0.0 mm 0.00 in0.0 mm 0.00 in0.0 mm
12:20 AM 25.5°F-3.6°C -170.2°F-112.3°C - Calm Calm 3.4 mph5.5 kmh 30.23 in1023.7 mb 0.00 in0.0 mm 0.00 in0.0 mm 0.00 in0.0 mm
12:35 AM 25.5°F-3.6°C -170.2°F-112.3°C - Calm Calm 1.4 mph2.3 kmh 30.22 in1023.4 mb 0.00 in0.0 mm 0.00 in0.0 mm 0.00 in0.0 mm
12:50 AM 25.3°F-3.7°C -170.3°F-112.4°C - Calm Calm 0.6 mph1.0 kmh 30.22 in1023.4 mb 0.00 in0.0 mm 0.00 in0.0 mm 0.00 in0.0 mm
01:05 AM 25.3°F-3.7°C -170.3°F-112.4°C - Calm Calm 0.6 mph1.0 kmh 30.21 in1023.0 mb 0.00 in0.0 mm 0.00 in0.0 mm 0.00 in0.0 mm
01:20 AM 25.3°F-3.7°C -170.3°F-112.4°C - 0.6 mph N1.0 kmh N 3.4 mph5.5 kmh 30.22 in1023.4 mb 0.00 in0.0 mm 0.00 in0.0 mm 0.00 in0.0 mm
01:35 AM 25.3°F-3.7°C -170.3°F-112.4°C - Calm Calm 0.6 mph1.0 kmh 30.21 in1023.0 mb 0.00 in0.0 mm 0.00 in0.0 mm 0.00 in0.0 mm
01:50 AM 25.2°F-3.8°C -170.3°F-112.4°C - 1.4 mph N2.3 kmh N 6.2 mph10.0 kmh 30.21 in1023.0 mb 0.00 in0.0 mm 0.00 in0.0 mm 0.00 in0.0 mm
02:05 AM 24.8°F-4.0°C -170.3°F-112.4°C - 1.4 mph N2.3 kmh N 4.8 mph7.7 kmh 30.21 in1023.0 mb 0.00 in0.0 mm 0.00 in0.0 mm 0.00 in0.0 mm
02:20 AM 24.6°F-4.1°C -170.3°F-112.4°C - 0.6 mph N1.0 kmh N 2.8 mph4.5 kmh 30.20 in1022.7 mb 0.00 in0.0 mm 0.00 in0.0 mm 0.00 in0.0 mm
02:30 AM 24.6°F-4.1°C -170.3°F-112.4°C - 0.6 mph N1.0 kmh N 2.8 mph4.5 kmh 30.20 in1022.7 mb 0.00 in0.0 mm 0.00 in0.0 mm 0.00 in0.0 mm
02:50 AM 24.6°F-4.1°C -170.3°F-112.4°C - Calm Calm 0.6 mph1.0 kmh 30.20 in1022.7 mb 0.00 in0.0 mm 0.00 in0.0 mm 0.00 in0.0 mm
03:00 AM 24.6°F-4.1°C -170.3°F-112.4°C - Calm Calm 0.6 mph1.0 kmh 30.20 in1022.7 mb 0.00 in0.0 mm 0.00 in0.0 mm 0.00 in0.0 mm
03:15 AM 24.6°F-4.1°C -170.3°F-112.4°C - Calm Calm 0.6 mph1.0 kmh 30.20 in1022.7 mb 0.00 in0.0 mm 0.00 in0.0 mm 0.00 in0.0 mm
03:35 AM 24.6°F-4.1°C -170.3°F-112.4°C - Calm Calm 1.4 mph2.3 kmh 30.20 in1022.7 mb 0.00 in0.0 mm 0.00 in0.0 mm 0.00 in0.0 mm
03:50 AM 24.6°F-4.1°C -170.3°F-112.4°C - 0.6 mph N1.0 kmh N 4.0 mph6.4 kmh 30.20 in1022.7 mb 0.00 in0.0 mm 0.00 in0.0 mm 0.00 in0.0 mm
04:05 AM 24.4°F-4.2°C -170.4°F-112.4°C - Calm Calm 2.0 mph3.2 kmh 30.20 in1022.7 mb 0.00 in0.0 mm 0.00 in0.0 mm 0.00 in0.0 mm
04:20 AM 24.6°F-4.1°C -170.3°F-112.4°C - Calm Calm 2.0 mph3.2 kmh 30.20 in1022.7 mb 0.00 in0.0 mm 0.00 in0.0 mm 0.00 in0.0 mm
04:35 AM 24.4°F-4.2°C -170.4°F-112.4°C - Calm Calm 0.6 mph1.0 kmh 30.19 in1022.4 mb 0.00 in0.0 mm 0.00 in0.0 mm 0.00 in0.0 mm
04:50 AM 24.6°F-4.1°C -170.3°F-112.4°C - Calm Calm 2.8 mph4.5 kmh 30.19 in1022.4 mb 0.00 in0.0 mm 0.00 in0.0 mm 0.00 in0.0 mm
05:06 AM 24.4°F-4.2°C -170.4°F-112.4°C - Calm Calm 1.4 mph2.3 kmh 30.19 in1022.4 mb 0.00 in0.0 mm 0.00 in0.0 mm 0.00 in0.0 mm
05:16 AM 24.4°F-4.2°C -170.4°F-112.4°C - Calm Calm 1.4 mph2.3 kmh 30.19 in1022.4 mb 0.00 in0.0 mm 0.00 in0.0 mm 0.00 in0.0 mm
05:32 AM 24.4°F-4.2°C -170.4°F-112.4°C - 0.6 mph N1.0 kmh N 3.4 mph5.5 kmh 30.19 in1022.4 mb 0.00 in0.0 mm 0.00 in0.0 mm 0.00 in0.0 mm
05:48 AM 24.1°F-4.4°C -170.4°F-112.4°C - 0.6 mph N1.0 kmh N 4.0 mph6.4 kmh 30.19 in1022.4 mb 0.00 in0.0 mm 0.00 in0.0 mm 0.00 in0.0 mm
06:04 AM 24.1°F-4.4°C -170.4°F-112.4°C - Calm Calm 2.8 mph4.5 kmh 30.19 in1022.4 mb 0.00 in0.0 mm 0.00 in0.0 mm 0.00 in0.0 mm
06:20 AM 23.9°F-4.5°C -170.4°F-112.4°C - Calm Calm 2.8 mph4.5 kmh 30.19 in1022.4 mb 0.00 in0.0 mm 0.00 in0.0 mm 0.00 in0.0 mm
06:31 AM 23.5°F-4.7°C -170.4°F-112.4°C - 0.6 mph N1.0 kmh N 2.8 mph4.5 kmh 30.19 in1022.4 mb 0.00 in0.0 mm 0.00 in0.0 mm 0.00 in0.0 mm
06:47 AM 23.7°F-4.6°C -170.4°F-112.4°C - 1.4 mph N2.3 kmh N 3.4 mph5.5 kmh 30.19 in1022.4 mb 0.00 in0.0 mm 0.00 in0.0 mm 0.00 in0.0 mm
07:03 AM 23.5°F-4.7°C -170.4°F-112.4°C - 2.0 mph N3.2 kmh N 5.4 mph8.7 kmh 30.19 in1022.4 mb 0.00 in0.0 mm 0.00 in0.0 mm 0.00 in0.0 mm
07:19 AM 23.7°F-4.6°C -170.4°F-112.4°C - 1.4 mph N2.3 kmh N 5.4 mph8.7 kmh 30.20 in1022.7 mb 0.00 in0.0 mm 0.00 in0.0 mm 0.00 in0.0 mm
07:35 AM 23.7°F-4.6°C -170.4°F-112.4°C - 1.4 mph N2.3 kmh N 4.0 mph6.4 kmh 30.19 in1022.4 mb 0.00 in0.0 mm 0.00 in0.0 mm 0.00 in0.0 mm
07:46 AM 23.7°F-4.6°C -170.4°F-112.4°C - Calm Calm 2.8 mph4.5 kmh 30.19 in1022.4 mb 0.00 in0.0 mm 0.00 in0.0 mm 0.00 in0.0 mm
08:01 AM 23.4°F-4.8°C -170.5°F-112.5°C - Calm Calm 2.0 mph3.2 kmh 30.19 in1022.4 mb 0.00 in0.0 mm 0.00 in0.0 mm 0.00 in0.0 mm
08:16 AM 23.4°F-4.8°C -170.5°F-112.5°C - Calm Calm 1.4 mph2.3 kmh 30.19 in1022.4 mb 0.00 in0.0 mm 0.00 in0.0 mm 0.00 in0.0 mm
08:31 AM 23.4°F-4.8°C -170.5°F-112.5°C - 0.6 mph N1.0 kmh N 4.0 mph6.4 kmh 30.20 in1022.7 mb 0.00 in0.0 mm 0.00 in0.0 mm 0.00 in0.0 mm
08:46 AM 23.2°F-4.9°C -170.5°F-112.5°C - Calm Calm 2.0 mph3.2 kmh 30.20 in1022.7 mb 0.00 in0.0 mm 0.00 in0.0 mm 0.00 in0.0 mm
09:01 AM 23.0°F-5.0°C -170.5°F-112.5°C - 1.4 mph N2.3 kmh N 3.4 mph5.5 kmh 30.20 in1022.7 mb 0.00 in0.0 mm 0.00 in0.0 mm 0.00 in0.0 mm
09:16 AM 23.2°F-4.9°C -170.5°F-112.5°C - 1.4 mph N2.3 kmh N 5.4 mph8.7 kmh 30.20 in1022.7 mb 0.00 in0.0 mm 0.00 in0.0 mm 0.00 in0.0 mm
09:31 AM 23.4°F-4.8°C -170.5°F-112.5°C - Calm Calm 2.0 mph3.2 kmh 30.20 in1022.7 mb 0.00 in0.0 mm 0.00 in0.0 mm 0.00 in0.0 mm
09:46 AM 23.2°F-4.9°C -170.5°F-112.5°C - Calm Calm 1.4 mph2.3 kmh 30.19 in1022.4 mb 0.00 in0.0 mm 0.00 in0.0 mm 0.00 in0.0 mm
10:01 AM 23.4°F-4.8°C -170.5°F-112.5°C - 1.4 mph N2.3 kmh N 3.4 mph5.5 kmh 30.20 in1022.7 mb 0.00 in0.0 mm 0.00 in0.0 mm 0.00 in0.0 mm
10:16 AM 23.5°F-4.7°C -170.4°F-112.4°C - Calm Calm 1.4 mph2.3 kmh 30.20 in1022.7 mb 0.00 in0.0 mm 0.00 in0.0 mm 0.00 in0.0 mm
10:31 AM 23.5°F-4.7°C -170.4°F-112.4°C - 0.6 mph N1.0 kmh N 4.0 mph6.4 kmh 30.20 in1022.7 mb 0.00 in0.0 mm 0.00 in0.0 mm 0.00 in0.0 mm
10:46 AM 23.4°F-4.8°C -170.5°F-112.5°C - 2.0 mph N3.2 kmh N 5.4 mph8.7 kmh 30.19 in1022.4 mb 0.00 in0.0 mm 0.00 in0.0 mm 0.00 in0.0 mm
11:01 AM 23.4°F-4.8°C -170.5°F-112.5°C - Calm Calm 1.4 mph2.3 kmh 30.19 in1022.4 mb 0.00 in0.0 mm 0.00 in0.0 mm 0.00 in0.0 mm
11:16 AM 23.5°F-4.7°C -170.4°F-112.4°C - 0.6 mph N1.0 kmh N 4.8 mph7.7 kmh 30.19 in1022.4 mb 0.00 in0.0 mm 0.00 in0.0 mm 0.00 in0.0 mm
11:30 AM 23.5°F-4.7°C -170.4°F-112.4°C - 0.6 mph N1.0 kmh N 4.8 mph7.7 kmh 30.19 in1022.4 mb 0.00 in0.0 mm 0.00 in0.0 mm 0.00 in0.0 mm
11:46 AM 23.4°F-4.8°C -170.5°F-112.5°C - 1.4 mph N2.3 kmh N 4.0 mph6.4 kmh 30.19 in1022.4 mb 0.00 in0.0 mm 0.00 in0.0 mm 0.00 in0.0 mm
12:01 PM 23.5°F-4.7°C -170.4°F-112.4°C - Calm Calm 1.4 mph2.3 kmh 30.18 in1022.0 mb 0.00 in0.0 mm 0.00 in0.0 mm 0.00 in0.0 mm
12:16 PM 23.5°F-4.7°C -170.4°F-112.4°C - Calm Calm 4.8 mph7.7 kmh 30.18 in1022.0 mb 0.00 in0.0 mm 0.00 in0.0 mm 0.00 in0.0 mm
12:31 PM 23.5°F-4.7°C -170.4°F-112.4°C - 0.6 mph N1.0 kmh N 4.8 mph7.7 kmh 30.18 in1022.0 mb 0.00 in0.0 mm 0.00 in0.0 mm 0.00 in0.0 mm
12:46 PM 23.5°F-4.7°C -170.4°F-112.4°C - Calm Calm 2.8 mph4.5 kmh 30.18 in1022.0 mb 0.00 in0.0 mm 0.00 in0.0 mm 0.00 in0.0 mm
01:01 PM 23.7°F-4.6°C -170.4°F-112.4°C - 0.6 mph N1.0 kmh N 2.8 mph4.5 kmh 30.17 in1021.7 mb 0.00 in0.0 mm 0.00 in0.0 mm 0.00 in0.0 mm
01:16 PM 23.9°F-4.5°C -170.4°F-112.4°C - Calm Calm 0.6 mph1.0 kmh 30.17 in1021.7 mb 0.00 in0.0 mm 0.00 in0.0 mm 0.00 in0.0 mm
01:31 PM 23.5°F-4.7°C -170.4°F-112.4°C - Calm Calm 0.6 mph1.0 kmh 30.16 in1021.3 mb 0.00 in0.0 mm 0.00 in0.0 mm 0.00 in0.0 mm
01:46 PM 23.2°F-4.9°C -170.5°F-112.5°C - Calm Calm 5.4 mph8.7 kmh 30.16 in1021.3 mb 0.00 in0.0 mm 0.00 in0.0 mm 0.00 in0.0 mm
02:01 PM 23.2°F-4.9°C -170.5°F-112.5°C - 1.4 mph N2.3 kmh N 6.8 mph10.9 kmh 30.16 in1021.3 mb 0.00 in0.0 mm 0.00 in0.0 mm 0.00 in0.0 mm
02:16 PM 23.0°F-5.0°C -170.5°F-112.5°C - 1.4 mph N2.3 kmh N 4.0 mph6.4 kmh 30.16 in1021.3 mb 0.00 in0.0 mm 0.00 in0.0 mm 0.00 in0.0 mm
02:31 PM 22.8°F-5.1°C -170.5°F-112.5°C - 0.6 mph N1.0 kmh N 4.0 mph6.4 kmh 30.16 in1021.3 mb 0.00 in0.0 mm 0.00 in0.0 mm 0.00 in0.0 mm
02:46 PM 22.8°F-5.1°C -170.5°F-112.5°C - Calm Calm 1.4 mph2.3 kmh 30.15 in1021.0 mb 0.00 in0.0 mm 0.00 in0.0 mm 0.00 in0.0 mm
03:01 PM 22.8°F-5.1°C -170.5°F-112.5°C - 0.6 mph N1.0 kmh N 2.8 mph4.5 kmh 30.15 in1021.0 mb 0.00 in0.0 mm 0.00 in0.0 mm 0.00 in0.0 mm
03:16 PM 23.0°F-5.0°C -170.5°F-112.5°C - Calm Calm 2.8 mph4.5 kmh 30.15 in1021.0 mb 0.00 in0.0 mm 0.00 in0.0 mm 0.00 in0.0 mm
03:31 PM 22.8°F-5.1°C -170.5°F-112.5°C - Calm Calm 2.0 mph3.2 kmh 30.15 in1021.0 mb 0.00 in0.0 mm 0.00 in0.0 mm 0.00 in0.0 mm
03:46 PM 22.6°F-5.2°C -170.5°F-112.5°C - Calm Calm 1.4 mph2.3 kmh 30.15 in1021.0 mb 0.00 in0.0 mm 0.00 in0.0 mm 0.00 in0.0 mm
04:01 PM 22.6°F-5.2°C -170.5°F-112.5°C - Calm Calm 2.0 mph3.2 kmh 30.15 in1021.0 mb 0.00 in0.0 mm 0.00 in0.0 mm 0.00 in0.0 mm
04:16 PM 22.5°F-5.3°C -170.6°F-112.6°C - 0.6 mph N1.0 kmh N 4.0 mph6.4 kmh 30.15 in1021.0 mb 0.00 in0.0 mm 0.00 in0.0 mm 0.00 in0.0 mm
04:31 PM 22.1°F-5.5°C -170.6°F-112.6°C - Calm Calm 0.6 mph1.0 kmh 30.15 in1021.0 mb 0.00 in0.0 mm 0.00 in0.0 mm 0.00 in0.0 mm
04:46 PM 22.1°F-5.5°C -170.6°F-112.6°C - Calm Calm 1.4 mph2.3 kmh 30.15 in1021.0 mb 0.00 in0.0 mm 0.00 in0.0 mm 0.00 in0.0 mm
05:01 PM 22.1°F-5.5°C -170.6°F-112.6°C - 0.6 mph N1.0 kmh N 2.0 mph3.2 kmh 30.15 in1021.0 mb 0.00 in0.0 mm 0.00 in0.0 mm 0.00 in0.0 mm
05:16 PM 21.9°F-5.6°C -170.6°F-112.6°C - Calm Calm 0.6 mph1.0 kmh 30.14 in1020.7 mb 0.00 in0.0 mm 0.00 in0.0 mm 0.00 in0.0 mm
05:31 PM 22.3°F-5.4°C -170.6°F-112.6°C - 0.6 mph N1.0 kmh N 2.8 mph4.5 kmh 30.14 in1020.7 mb 0.00 in0.0 mm 0.00 in0.0 mm 0.00 in0.0 mm
05:46 PM 22.1°F-5.5°C -170.6°F-112.6°C - 0.6 mph N1.0 kmh N 4.8 mph7.7 kmh 30.14 in1020.7 mb 0.00 in0.0 mm 0.00 in0.0 mm 0.00 in0.0 mm
06:01 PM 22.1°F-5.5°C -170.6°F-112.6°C - 1.4 mph N2.3 kmh N 6.8 mph10.9 kmh 30.14 in1020.7 mb 0.00 in0.0 mm 0.00 in0.0 mm 0.00 in0.0 mm
06:16 PM 22.1°F-5.5°C -170.6°F-112.6°C - Calm Calm 3.4 mph5.5 kmh 30.14 in1020.7 mb 0.00 in0.0 mm 0.00 in0.0 mm 0.00 in0.0 mm
06:31 PM 22.3°F-5.4°C -170.6°F-112.6°C - Calm Calm 2.0 mph3.2 kmh 30.14 in1020.7 mb 0.00 in0.0 mm 0.00 in0.0 mm 0.00 in0.0 mm
06:46 PM 22.3°F-5.4°C -170.6°F-112.6°C - Calm Calm 4.0 mph6.4 kmh 30.14 in1020.7 mb 0.00 in0.0 mm 0.00 in0.0 mm 0.00 in0.0 mm
07:01 PM 21.9°F-5.6°C -170.6°F-112.6°C - 0.6 mph N1.0 kmh N 4.8 mph7.7 kmh 30.14 in1020.7 mb 0.00 in0.0 mm 0.00 in0.0 mm 0.00 in0.0 mm
07:16 PM 22.1°F-5.5°C -170.6°F-112.6°C - 0.6 mph N1.0 kmh N 3.4 mph5.5 kmh 30.14 in1020.7 mb 0.00 in0.0 mm 0.00 in0.0 mm 0.00 in0.0 mm
07:31 PM 22.3°F-5.4°C -170.6°F-112.6°C - 2.0 mph N3.2 kmh N 7.4 mph11.9 kmh 30.14 in1020.7 mb 0.00 in0.0 mm 0.00 in0.0 mm 0.00 in0.0 mm
07:46 PM 22.3°F-5.4°C -170.6°F-112.6°C - 0.6 mph N1.0 kmh N 3.4 mph5.5 kmh 30.14 in1020.7 mb 0.00 in0.0 mm 0.00 in0.0 mm 0.00 in0.0 mm
08:01 PM 22.3°F-5.4°C -170.6°F-112.6°C - Calm Calm 1.4 mph2.3 kmh 30.14 in1020.7 mb 0.00 in0.0 mm 0.00 in0.0 mm 0.00 in0.0 mm
08:16 PM 22.3°F-5.4°C -170.6°F-112.6°C - Calm Calm 2.8 mph4.5 kmh 30.13 in1020.3 mb 0.00 in0.0 mm 0.00 in0.0 mm 0.00 in0.0 mm
08:31 PM 22.5°F-5.3°C -170.6°F-112.6°C - Calm Calm 2.8 mph4.5 kmh 30.13 in1020.3 mb 0.00 in0.0 mm 0.00 in0.0 mm 0.00 in0.0 mm
08:46 PM 22.5°F-5.3°C -170.6°F-112.6°C - Calm Calm 3.4 mph5.5 kmh 30.13 in1020.3 mb 0.00 in0.0 mm 0.00 in0.0 mm 0.00 in0.0 mm
09:01 PM 22.5°F-5.3°C -170.6°F-112.6°C - 0.6 mph N1.0 kmh N 3.4 mph5.5 kmh 30.13 in1020.3 mb 0.00 in0.0 mm 0.00 in0.0 mm 0.00 in0.0 mm
09:16 PM 22.1°F-5.5°C -170.6°F-112.6°C - Calm Calm 3.4 mph5.5 kmh 30.13 in1020.3 mb 0.00 in0.0 mm 0.00 in0.0 mm 0.00 in0.0 mm
09:31 PM 22.3°F-5.4°C -170.6°F-112.6°C - 0.6 mph N1.0 kmh N 3.4 mph5.5 kmh 30.13 in1020.3 mb 0.00 in0.0 mm 0.00 in0.0 mm 0.00 in0.0 mm
09:46 PM 22.3°F-5.4°C -170.6°F-112.6°C - 0.6 mph N1.0 kmh N 4.0 mph6.4 kmh 30.13 in1020.3 mb 0.00 in0.0 mm 0.00 in0.0 mm 0.00 in0.0 mm
10:01 PM 22.5°F-5.3°C -170.6°F-112.6°C - 0.6 mph N1.0 kmh N 4.8 mph7.7 kmh 30.12 in1020.0 mb 0.00 in0.0 mm 0.00 in0.0 mm 0.00 in0.0 mm
10:16 PM 22.5°F-5.3°C -170.6°F-112.6°C - 0.6 mph N1.0 kmh N 4.8 mph7.7 kmh 30.12 in1020.0 mb 0.00 in0.0 mm 0.00 in0.0 mm 0.00 in0.0 mm
10:31 PM 22.5°F-5.3°C -170.6°F-112.6°C - 0.6 mph N1.0 kmh N 4.8 mph7.7 kmh 30.12 in1020.0 mb 0.00 in0.0 mm 0.00 in0.0 mm 0.00 in0.0 mm
10:46 PM 22.5°F-5.3°C -170.6°F-112.6°C - 0.6 mph N1.0 kmh N 4.8 mph7.7 kmh 30.12 in1020.0 mb 0.00 in0.0 mm 0.00 in0.0 mm 0.00 in0.0 mm
11:01 PM 22.5°F-5.3°C -170.6°F-112.6°C - 0.6 mph N1.0 kmh N 4.8 mph7.7 kmh 30.12 in1020.0 mb 0.00 in0.0 mm 0.00 in0.0 mm 0.00 in0.0 mm
11:16 PM 22.3°F-5.4°C -170.6°F-112.6°C - 0.6 mph N1.0 kmh N 4.0 mph6.4 kmh 30.12 in1020.0 mb 0.00 in0.0 mm 0.00 in0.0 mm 0.00 in0.0 mm
11:31 PM 22.1°F-5.5°C -170.6°F-112.6°C - 0.6 mph N1.0 kmh N 3.4 mph5.5 kmh 30.12 in1020.0 mb 0.00 in0.0 mm 0.00 in0.0 mm 0.00 in0.0 mm
11:46 PM 22.1°F-5.5°C -170.6°F-112.6°C - 0.6 mph N1.0 kmh N 3.4 mph5.5 kmh 30.12 in1020.0 mb 0.00 in0.0 mm 0.00 in0.0 mm 0.00 in0.0 mm